createdAt,value
2016-11-14T00:00:03.968Z,0
2016-11-14T00:05:04.461Z,0
2016-11-14T00:10:03.864Z,0
2016-11-14T00:15:04.253Z,0
2016-11-14T00:20:04.845Z,0
2016-11-14T00:25:03.841Z,0
2016-11-14T00:30:04.163Z,0
2016-11-14T00:35:04.271Z,0
2016-11-14T00:40:03.685Z,0
2016-11-14T00:45:04.251Z,0
2016-11-14T00:50:04.110Z,0
2016-11-14T00:55:04.495Z,0
2016-11-14T01:00:03.918Z,0
2016-11-14T01:05:04.754Z,0
2016-11-14T01:10:04.430Z,0
2016-11-14T01:15:04.299Z,0
2016-11-14T01:20:04.001Z,0
2016-11-14T01:25:04.897Z,0
2016-11-14T01:30:04.622Z,0
2016-11-14T01:35:04.246Z,0
2016-11-14T01:40:04.575Z,0
2016-11-14T01:45:04.721Z,0
2016-11-14T01:50:04.421Z,0
2016-11-14T01:55:04.780Z,0
2016-11-14T02:00:04.871Z,0
2016-11-14T02:05:04.233Z,0
2016-11-14T02:10:04.021Z,0
2016-11-14T02:15:04.624Z,0
2016-11-14T02:20:04.782Z,0
2016-11-14T02:25:04.701Z,0
2016-11-14T02:30:03.951Z,0
2016-11-14T02:35:04.142Z,0
2016-11-14T02:40:04.303Z,0
2016-11-14T02:45:04.018Z,0
2016-11-14T02:50:04.121Z,0
2016-11-14T02:55:04.008Z,0
2016-11-14T03:00:04.898Z,0
2016-11-14T03:05:08.741Z,0
2016-11-14T03:10:04.691Z,0
2016-11-14T03:15:04.225Z,0
2016-11-14T03:20:04.287Z,0
2016-11-14T03:25:04.779Z,0
2016-11-14T03:30:04.355Z,0
2016-11-14T03:35:04.251Z,0
2016-11-14T03:40:04.608Z,0
2016-11-14T03:45:04.568Z,0
2016-11-14T03:50:04.644Z,0
2016-11-14T03:55:03.862Z,0
2016-11-14T04:00:04.799Z,0
2016-11-14T04:05:05.375Z,0
2016-11-14T04:10:04.124Z,0
2016-11-14T04:15:04.057Z,0
2016-11-14T04:20:04.115Z,0
2016-11-14T04:25:04.361Z,0
2016-11-14T04:30:04.420Z,0
2016-11-14T04:35:04.804Z,0
2016-11-14T04:40:04.116Z,0
2016-11-14T04:45:04.188Z,0
2016-11-14T04:50:04.338Z,0
2016-11-14T04:55:04.691Z,0
2016-11-14T05:00:04.657Z,0
2016-11-14T05:05:04.046Z,0
2016-11-14T05:10:04.368Z,0
2016-11-14T05:15:04.716Z,0
2016-11-14T05:20:04.369Z,0
2016-11-14T05:25:04.817Z,0
2016-11-14T05:30:03.950Z,0
2016-11-14T05:35:04.768Z,0
2016-11-14T05:40:04.233Z,0
2016-11-14T05:45:04.117Z,0
2016-11-14T05:50:04.712Z,0
2016-11-14T05:55:04.144Z,0
2016-11-14T06:00:04.063Z,0
2016-11-14T06:05:04.550Z,0
2016-11-14T06:10:03.971Z,0
2016-11-14T06:15:04.525Z,1
2016-11-14T06:20:04.157Z,4
2016-11-14T06:25:04.092Z,8
2016-11-14T06:30:04.840Z,19
2016-11-14T06:35:04.304Z,38
2016-11-14T06:40:04.168Z,63
2016-11-14T06:45:04.720Z,107
2016-11-14T06:50:03.868Z,152
2016-11-14T06:55:04.520Z,283
2016-11-14T07:00:04.441Z,338
2016-11-14T07:05:04.809Z,434
2016-11-14T07:10:04.001Z,683
2016-11-14T07:15:04.285Z,827
2016-11-14T07:20:04.108Z,961
2016-11-14T07:25:04.237Z,1000
2016-11-14T07:30:04.022Z,1000
2016-11-14T07:35:04.380Z,1000
2016-11-14T07:40:04.121Z,1000
2016-11-14T07:45:04.028Z,1000
2016-11-14T07:50:04.813Z,1000
2016-11-14T07:55:04.492Z,1000
2016-11-14T08:00:04.377Z,2000
2016-11-14T08:05:04.271Z,2000
2016-11-14T08:10:03.968Z,2000
2016-11-14T08:15:03.849Z,2000
2016-11-14T08:20:04.250Z,2000
2016-11-14T08:25:04.666Z,2000
2016-11-14T08:30:04.792Z,2000
2016-11-14T08:35:04.319Z,3000
2016-11-14T08:40:04.148Z,3000
2016-11-14T08:45:04.576Z,3000
2016-11-14T08:50:03.996Z,3000
2016-11-14T08:55:04.185Z,4000
2016-11-14T09:00:04.700Z,4000
2016-11-14T09:05:04.590Z,4000
2016-11-14T09:10:04.427Z,4000
2016-11-14T09:15:04.164Z,3000
2016-11-14T09:20:03.802Z,3000
2016-11-14T09:25:04.177Z,3000
2016-11-14T09:30:04.551Z,4000
2016-11-14T09:35:03.784Z,4000
2016-11-14T09:40:04.093Z,3000
2016-11-14T09:45:04.918Z,3000
2016-11-14T09:50:04.017Z,3000
2016-11-14T09:55:04.120Z,3000
2016-11-14T10:00:04.161Z,4000
2016-11-14T10:05:03.891Z,4000
2016-11-14T10:10:04.302Z,4000
2016-11-14T10:15:04.589Z,4000
2016-11-14T10:20:03.915Z,4000
2016-11-14T10:25:04.655Z,5000
2016-11-14T10:30:05.016Z,4000
2016-11-14T10:35:03.769Z,4000
2016-11-14T10:40:04.109Z,4000
2016-11-14T10:45:04.484Z,5000
2016-11-14T10:50:04.526Z,5000
2016-11-14T10:55:04.588Z,5000
2016-11-14T11:00:04.478Z,5000
2016-11-14T11:05:04.124Z,5000
2016-11-14T11:10:04.303Z,6000
2016-11-14T11:15:04.317Z,6000
2016-11-14T11:20:04.755Z,5000
2016-11-14T11:25:04.774Z,5000
2016-11-14T11:30:04.195Z,5000
2016-11-14T11:35:04.277Z,5000
2016-11-14T11:40:04.025Z,5000
2016-11-14T11:45:03.806Z,5000
2016-11-14T11:50:04.927Z,7000
2016-11-14T11:55:04.744Z,7000
2016-11-14T12:00:04.180Z,8000
2016-11-14T12:05:04.201Z,7000
2016-11-14T12:10:04.526Z,7000
2016-11-14T12:15:04.480Z,7000
2016-11-14T12:20:04.479Z,6000
2016-11-14T12:25:04.461Z,6000
2016-11-14T12:30:04.757Z,6000
2016-11-14T12:35:04.782Z,5000
2016-11-14T12:40:03.892Z,5000
2016-11-14T12:45:04.799Z,5000
2016-11-14T12:50:04.502Z,4000
2016-11-14T12:55:03.904Z,4000
2016-11-14T13:00:04.661Z,4000
2016-11-14T13:05:04.499Z,4000
2016-11-14T13:10:03.908Z,4000
2016-11-14T13:15:04.821Z,4000
2016-11-14T13:20:04.516Z,4000
2016-11-14T13:25:03.797Z,3000
2016-11-14T13:30:03.824Z,3000
2016-11-14T13:35:04.873Z,3000
2016-11-14T13:40:04.778Z,3000
2016-11-14T13:45:04.371Z,3000
2016-11-14T13:50:04.215Z,3000
2016-11-14T13:55:04.353Z,2000
2016-11-14T14:00:04.322Z,2000
2016-11-14T14:05:04.565Z,2000
2016-11-14T14:10:04.034Z,2000
2016-11-14T14:15:04.031Z,1000
2016-11-14T14:20:04.084Z,1000
2016-11-14T14:25:04.173Z,1000
2016-11-14T14:30:04.833Z,1000
2016-11-14T14:35:04.489Z,1000
2016-11-14T14:40:04.567Z,1000
2016-11-14T14:45:04.430Z,1000
2016-11-14T14:50:04.282Z,934
2016-11-14T14:55:04.643Z,879
2016-11-14T15:00:04.706Z,823
2016-11-14T15:05:04.285Z,761
2016-11-14T15:10:04.688Z,590
2016-11-14T15:15:04.258Z,442
2016-11-14T15:20:03.993Z,346
2016-11-14T15:25:04.103Z,286
2016-11-14T15:30:03.981Z,177
2016-11-14T15:35:03.911Z,88
2016-11-14T15:40:04.178Z,69
2016-11-14T15:45:04.726Z,62
2016-11-14T15:50:04.688Z,51
2016-11-14T15:55:04.473Z,36
2016-11-14T16:00:04.576Z,22
2016-11-14T16:05:04.490Z,12
2016-11-14T16:10:04.623Z,5
2016-11-14T16:15:04.008Z,1
2016-11-14T16:20:04.779Z,0
2016-11-14T16:25:04.785Z,0
2016-11-14T16:30:04.171Z,0
2016-11-14T16:35:04.019Z,0
2016-11-14T16:40:03.964Z,0
2016-11-14T16:45:04.422Z,0
2016-11-14T16:50:04.011Z,0
2016-11-14T16:55:04.031Z,0
2016-11-14T17:00:04.767Z,0
2016-11-14T17:05:04.326Z,0
2016-11-14T17:10:04.608Z,0
2016-11-14T17:15:04.835Z,0
2016-11-14T17:20:04.806Z,0
2016-11-14T17:25:04.692Z,0
2016-11-14T17:30:04.683Z,0
2016-11-14T17:35:04.378Z,0
2016-11-14T17:40:04.550Z,0
2016-11-14T17:45:04.299Z,0
2016-11-14T17:50:04.274Z,0
2016-11-14T17:55:04.360Z,0
2016-11-14T18:00:03.874Z,0
2016-11-14T18:05:04.135Z,0
2016-11-14T18:10:04.498Z,0
2016-11-14T18:15:04.786Z,0
2016-11-14T18:20:04.235Z,0
2016-11-14T18:25:04.472Z,0
2016-11-14T18:30:04.799Z,0
2016-11-14T18:35:04.902Z,0
2016-11-14T18:40:03.972Z,0
2016-11-14T18:45:04.593Z,0
2016-11-14T18:50:04.726Z,0
2016-11-14T18:55:04.242Z,0
2016-11-14T19:00:04.166Z,0
2016-11-14T19:05:03.733Z,0
2016-11-14T19:10:04.797Z,0
2016-11-14T19:15:04.260Z,0
2016-11-14T19:20:03.842Z,0
2016-11-14T19:25:04.829Z,0
2016-11-14T19:30:04.909Z,0
2016-11-14T19:35:04.266Z,0
2016-11-14T19:40:04.208Z,0
2016-11-14T19:45:04.127Z,0
2016-11-14T19:50:04.582Z,0
2016-11-14T19:55:03.986Z,0
2016-11-14T20:00:03.904Z,0
2016-11-14T20:05:03.936Z,0
2016-11-14T20:10:04.755Z,0
2016-11-14T20:15:04.705Z,0
2016-11-14T20:20:04.010Z,0
2016-11-14T20:25:04.107Z,0
2016-11-14T20:30:03.795Z,0
2016-11-14T20:35:04.060Z,0
2016-11-14T20:40:04.265Z,0
2016-11-14T20:45:04.543Z,0
2016-11-14T20:50:04.319Z,0
2016-11-14T20:55:04.189Z,0
2016-11-14T21:00:04.257Z,0
2016-11-14T21:05:04.623Z,0
2016-11-14T21:10:04.139Z,0
2016-11-14T21:15:04.625Z,0
2016-11-14T21:20:04.385Z,0
2016-11-14T21:25:04.617Z,0
2016-11-14T21:30:04.082Z,0
2016-11-14T21:35:04.157Z,0
2016-11-14T21:40:04.638Z,0
2016-11-14T21:45:04.919Z,0
2016-11-14T21:50:04.288Z,0
2016-11-14T21:55:04.550Z,0
2016-11-14T22:00:03.945Z,0
2016-11-14T22:05:04.169Z,0
2016-11-14T22:10:04.352Z,0
2016-11-14T22:15:04.507Z,0
2016-11-14T22:20:04.316Z,0
2016-11-14T22:25:04.220Z,0
2016-11-14T22:30:04.240Z,0
2016-11-14T22:35:04.213Z,0
2016-11-14T22:40:04.208Z,0
2016-11-14T22:45:04.672Z,0
2016-11-14T22:50:04.635Z,0
2016-11-14T22:55:04.824Z,0
2016-11-14T23:00:04.790Z,0
2016-11-14T23:05:03.981Z,0
2016-11-14T23:10:04.382Z,0
2016-11-14T23:15:04.321Z,0
2016-11-14T23:20:03.997Z,0
2016-11-14T23:25:04.336Z,0
2016-11-14T23:30:04.154Z,0
2016-11-14T23:35:04.119Z,0
2016-11-14T23:40:04.019Z,0
2016-11-14T23:45:04.757Z,0
2016-11-14T23:50:04.848Z,0
2016-11-14T23:55:04.281Z,0
